sensor_id;sensor_type;location;lat;lon;timestamp;temperature;humidity
71367;DHT22;60030;52.274;8.040;2022-11-03T00:01:12;12.20;99.90
71367;DHT22;60030;52.274;8.040;2022-11-03T00:03:39;12.10;99.90
71367;DHT22;60030;52.274;8.040;2022-11-03T00:06:06;12.10;99.90
71367;DHT22;60030;52.274;8.040;2022-11-03T00:08:37;12.10;99.90
71367;DHT22;60030;52.274;8.040;2022-11-03T00:11:06;12.10;99.90
71367;DHT22;60030;52.274;8.040;2022-11-03T00:13:35;12.10;99.90
71367;DHT22;60030;52.274;8.040;2022-11-03T00:16:02;12.10;99.90
71367;DHT22;60030;52.274;8.040;2022-11-03T00:18:30;12.10;99.90
71367;DHT22;60030;52.274;8.040;2022-11-03T00:20:58;12.20;99.90
71367;DHT22;60030;52.274;8.040;2022-11-03T00:23:27;12.10;99.90
71367;DHT22;60030;52.274;8.040;2022-11-03T00:26:03;12.10;99.90
71367;DHT22;60030;52.274;8.040;2022-11-03T00:28:31;12.10;99.90
71367;DHT22;60030;52.274;8.040;2022-11-03T00:30:59;12.10;99.90
71367;DHT22;60030;52.274;8.040;2022-11-03T00:33:29;12.10;99.90
71367;DHT22;60030;52.274;8.040;2022-11-03T00:35:56;12.10;99.90
71367;DHT22;60030;52.274;8.040;2022-11-03T00:38:24;12.20;99.90
71367;DHT22;60030;52.274;8.040;2022-11-03T00:40:54;12.20;99.90
71367;DHT22;60030;52.274;8.040;2022-11-03T00:43:24;12.20;99.90
71367;DHT22;60030;52.274;8.040;2022-11-03T00:45:52;12.20;99.90
71367;DHT22;60030;52.274;8.040;2022-11-03T00:48:19;12.20;99.90
71367;DHT22;60030;52.274;8.040;2022-11-03T00:51:03;12.20;99.90
71367;DHT22;60030;52.274;8.040;2022-11-03T00:53:31;12.20;99.90
71367;DHT22;60030;52.274;8.040;2022-11-03T00:55:59;12.20;99.90
71367;DHT22;60030;52.274;8.040;2022-11-03T00:58:28;12.20;99.90
71367;DHT22;60030;52.274;8.040;2022-11-03T01:01:00;12.20;99.90
71367;DHT22;60030;52.274;8.040;2022-11-03T01:03:28;12.10;99.90
71367;DHT22;60030;52.274;8.040;2022-11-03T01:05:55;12.10;99.90
71367;DHT22;60030;52.274;8.040;2022-11-03T01:08:39;12.10;99.90
71367;DHT22;60030;52.274;8.040;2022-11-03T01:11:07;12.10;99.90
71367;DHT22;60030;52.274;8.040;2022-11-03T01:13:54;12.10;99.90
71367;DHT22;60030;52.274;8.040;2022-11-03T01:16:21;12.10;99.90
71367;DHT22;60030;52.274;8.040;2022-11-03T01:18:49;12.00;99.90
71367;DHT22;60030;52.274;8.040;2022-11-03T01:21:16;12.00;99.90
71367;DHT22;60030;52.274;8.040;2022-11-03T01:23:44;11.90;99.90
71367;DHT22;60030;52.274;8.040;2022-11-03T01:26:12;12.00;99.90
71367;DHT22;60030;52.274;8.040;2022-11-03T01:28:41;12.00;99.90
71367;DHT22;60030;52.274;8.040;2022-11-03T01:31:12;12.00;99.90
71367;DHT22;60030;52.274;8.040;2022-11-03T01:33:40;11.90;99.90
71367;DHT22;60030;52.274;8.040;2022-11-03T01:36:08;12.00;99.90
71367;DHT22;60030;52.274;8.040;2022-11-03T01:38:36;12.00;99.90
71367;DHT22;60030;52.274;8.040;2022-11-03T01:41:05;12.00;99.90
71367;DHT22;60030;52.274;8.040;2022-11-03T01:43:33;12.00;99.90
71367;DHT22;60030;52.274;8.040;2022-11-03T01:46:05;11.90;99.90
71367;DHT22;60030;52.274;8.040;2022-11-03T01:48:36;12.00;99.90
71367;DHT22;60030;52.274;8.040;2022-11-03T01:51:06;12.00;99.90
71367;DHT22;60030;52.274;8.040;2022-11-03T01:53:35;12.00;99.90
71367;DHT22;60030;52.274;8.040;2022-11-03T01:56:04;11.90;99.90
71367;DHT22;60030;52.274;8.040;2022-11-03T01:58:34;11.90;99.90
71367;DHT22;60030;52.274;8.040;2022-11-03T02:01:03;11.90;99.90
71367;DHT22;60030;52.274;8.040;2022-11-03T02:03:36;11.90;99.90
71367;DHT22;60030;52.274;8.040;2022-11-03T02:06:04;11.90;99.90
71367;DHT22;60030;52.274;8.040;2022-11-03T02:08:35;11.90;99.90
71367;DHT22;60030;52.274;8.040;2022-11-03T02:11:04;11.90;99.90
71367;DHT22;60030;52.274;8.040;2022-11-03T02:13:52;11.90;99.90
71367;DHT22;60030;52.274;8.040;2022-11-03T02:16:21;11.90;99.90
71367;DHT22;60030;52.274;8.040;2022-11-03T02:18:50;11.90;99.90
71367;DHT22;60030;52.274;8.040;2022-11-03T02:21:24;11.90;99.90
71367;DHT22;60030;52.274;8.040;2022-11-03T02:23:56;11.90;99.90
71367;DHT22;60030;52.274;8.040;2022-11-03T02:26:26;11.90;99.90
71367;DHT22;60030;52.274;8.040;2022-11-03T02:28:55;11.90;99.90
71367;DHT22;60030;52.274;8.040;2022-11-03T02:31:29;11.90;99.90
71367;DHT22;60030;52.274;8.040;2022-11-03T02:34:05;11.90;99.90
71367;DHT22;60030;52.274;8.040;2022-11-03T02:36:36;11.90;99.90
71367;DHT22;60030;52.274;8.040;2022-11-03T02:39:10;11.90;99.90
71367;DHT22;60030;52.274;8.040;2022-11-03T02:41:41;11.80;99.90
71367;DHT22;60030;52.274;8.040;2022-11-03T02:44:13;11.80;99.90
71367;DHT22;60030;52.274;8.040;2022-11-03T02:46:41;11.90;99.90
71367;DHT22;60030;52.274;8.040;2022-11-03T02:49:09;11.80;99.90
71367;DHT22;60030;52.274;8.040;2022-11-03T02:51:36;11.90;99.90
71367;DHT22;60030;52.274;8.040;2022-11-03T02:54:06;11.80;99.90
71367;DHT22;60030;52.274;8.040;2022-11-03T02:56:40;11.80;99.90
71367;DHT22;60030;52.274;8.040;2022-11-03T02:59:10;11.80;99.90
71367;DHT22;60030;52.274;8.040;2022-11-03T03:01:42;11.80;99.90
71367;DHT22;60030;52.274;8.040;2022-11-03T03:04:15;11.80;99.90
71367;DHT22;60030;52.274;8.040;2022-11-03T03:06:47;11.70;99.90
71367;DHT22;60030;52.274;8.040;2022-11-03T03:09:19;11.70;99.90
71367;DHT22;60030;52.274;8.040;2022-11-03T03:11:50;11.70;99.90
71367;DHT22;60030;52.274;8.040;2022-11-03T03:14:20;11.70;99.90
71367;DHT22;60030;52.274;8.040;2022-11-03T03:16:53;11.70;99.90
71367;DHT22;60030;52.274;8.040;2022-11-03T03:19:29;11.70;99.90
71367;DHT22;60030;52.274;8.040;2022-11-03T03:22:01;11.70;99.90
71367;DHT22;60030;52.274;8.040;2022-11-03T03:24:35;11.70;99.90
71367;DHT22;60030;52.274;8.040;2022-11-03T03:27:09;11.70;99.90
71367;DHT22;60030;52.274;8.040;2022-11-03T03:29:41;11.60;99.90
71367;DHT22;60030;52.274;8.040;2022-11-03T03:32:14;11.60;99.90
71367;DHT22;60030;52.274;8.040;2022-11-03T03:34:44;11.60;99.90
71367;DHT22;60030;52.274;8.040;2022-11-03T03:37:13;11.70;99.90
71367;DHT22;60030;52.274;8.040;2022-11-03T03:39:44;11.70;99.90
71367;DHT22;60030;52.274;8.040;2022-11-03T03:42:15;11.70;99.90
71367;DHT22;60030;52.274;8.040;2022-11-03T03:44:45;11.60;99.90
71367;DHT22;60030;52.274;8.040;2022-11-03T03:47:16;11.70;99.90
71367;DHT22;60030;52.274;8.040;2022-11-03T03:49:45;11.60;99.90
71367;DHT22;60030;52.274;8.040;2022-11-03T03:52:12;11.70;99.90
71367;DHT22;60030;52.274;8.040;2022-11-03T03:54:39;11.70;99.90
71367;DHT22;60030;52.274;8.040;2022-11-03T03:57:10;11.70;99.90
71367;DHT22;60030;52.274;8.040;2022-11-03T03:59:41;11.70;99.90
71367;DHT22;60030;52.274;8.040;2022-11-03T04:02:09;11.70;99.90
71367;DHT22;60030;52.274;8.040;2022-11-03T04:04:36;11.70;99.90
71367;DHT22;60030;52.274;8.040;2022-11-03T04:07:04;11.70;99.90
71367;DHT22;60030;52.274;8.040;2022-11-03T04:09:48;11.60;99.90
71367;DHT22;60030;52.274;8.040;2022-11-03T04:12:15;11.70;99.90
71367;DHT22;60030;52.274;8.040;2022-11-03T04:15:01;11.70;99.90
71367;DHT22;60030;52.274;8.040;2022-11-03T04:17:46;11.60;99.90
71367;DHT22;60030;52.274;8.040;2022-11-03T04:20:31;11.60;99.90
71367;DHT22;60030;52.274;8.040;2022-11-03T04:23:16;11.60;99.90
71367;DHT22;60030;52.274;8.040;2022-11-03T04:25:47;11.70;99.90
71367;DHT22;60030;52.274;8.040;2022-11-03T04:28:15;11.70;99.90
71367;DHT22;60030;52.274;8.040;2022-11-03T04:30:43;11.70;99.90
71367;DHT22;60030;52.274;8.040;2022-11-03T04:33:12;11.70;99.90
71367;DHT22;60030;52.274;8.040;2022-11-03T04:35:41;11.70;99.90
71367;DHT22;60030;52.274;8.040;2022-11-03T04:38:19;11.60;99.90
71367;DHT22;60030;52.274;8.040;2022-11-03T04:40:53;11.70;99.90
71367;DHT22;60030;52.274;8.040;2022-11-03T04:43:22;11.60;99.90
71367;DHT22;60030;52.274;8.040;2022-11-03T04:45:51;11.70;99.90
71367;DHT22;60030;52.274;8.040;2022-11-03T04:48:21;11.70;99.90
71367;DHT22;60030;52.274;8.040;2022-11-03T04:50:52;11.70;99.90
71367;DHT22;60030;52.274;8.040;2022-11-03T04:53:20;11.70;99.90
71367;DHT22;60030;52.274;8.040;2022-11-03T04:55:50;11.70;99.90
71367;DHT22;60030;52.274;8.040;2022-11-03T04:58:19;11.70;99.90
71367;DHT22;60030;52.274;8.040;2022-11-03T05:00:47;11.70;99.90
71367;DHT22;60030;52.274;8.040;2022-11-03T05:03:21;11.70;99.90
71367;DHT22;60030;52.274;8.040;2022-11-03T05:05:48;11.70;99.90
71367;DHT22;60030;52.274;8.040;2022-11-03T05:08:17;11.70;99.90
71367;DHT22;60030;52.274;8.040;2022-11-03T05:10:45;11.70;99.90
71367;DHT22;60030;52.274;8.040;2022-11-03T05:13:16;11.70;99.90
71367;DHT22;60030;52.274;8.040;2022-11-03T05:15:45;11.80;99.90
71367;DHT22;60030;52.274;8.040;2022-11-03T05:18:19;11.80;99.90
71367;DHT22;60030;52.274;8.040;2022-11-03T05:20:49;11.80;99.90
71367;DHT22;60030;52.274;8.040;2022-11-03T05:23:18;11.80;99.90
71367;DHT22;60030;52.274;8.040;2022-11-03T05:25:47;11.80;99.90
71367;DHT22;60030;52.274;8.040;2022-11-03T05:28:20;11.80;99.90
71367;DHT22;60030;52.274;8.040;2022-11-03T05:30:50;11.90;99.90
71367;DHT22;60030;52.274;8.040;2022-11-03T05:33:25;11.80;99.90
71367;DHT22;60030;52.274;8.040;2022-11-03T05:35:53;11.90;99.90
71367;DHT22;60030;52.274;8.040;2022-11-03T05:38:21;11.80;99.90
71367;DHT22;60030;52.274;8.040;2022-11-03T05:40:51;11.90;99.90
71367;DHT22;60030;52.274;8.040;2022-11-03T05:43:20;11.90;99.90
71367;DHT22;60030;52.274;8.040;2022-11-03T05:45:49;11.90;99.90
71367;DHT22;60030;52.274;8.040;2022-11-03T05:48:25;11.90;99.90
71367;DHT22;60030;52.274;8.040;2022-11-03T05:50:56;11.90;99.90
71367;DHT22;60030;52.274;8.040;2022-11-03T05:53:28;11.90;99.90
71367;DHT22;60030;52.274;8.040;2022-11-03T05:55:58;12.00;99.90
71367;DHT22;60030;52.274;8.040;2022-11-03T05:58:29;12.00;99.90
71367;DHT22;60030;52.274;8.040;2022-11-03T06:00:59;12.00;99.90
71367;DHT22;60030;52.274;8.040;2022-11-03T06:03:32;12.00;99.90
71367;DHT22;60030;52.274;8.040;2022-11-03T06:06:01;12.00;99.90
71367;DHT22;60030;52.274;8.040;2022-11-03T06:08:33;12.00;99.90
71367;DHT22;60030;52.274;8.040;2022-11-03T06:11:02;12.00;99.90
71367;DHT22;60030;52.274;8.040;2022-11-03T06:13:33;12.00;99.90
71367;DHT22;60030;52.274;8.040;2022-11-03T06:16:03;12.00;99.90
71367;DHT22;60030;52.274;8.040;2022-11-03T06:18:34;12.00;99.90
71367;DHT22;60030;52.274;8.040;2022-11-03T06:21:06;12.00;99.90
71367;DHT22;60030;52.274;8.040;2022-11-03T06:23:35;12.10;99.90
71367;DHT22;60030;52.274;8.040;2022-11-03T06:26:03;12.10;99.90
71367;DHT22;60030;52.274;8.040;2022-11-03T06:28:37;12.10;99.90
71367;DHT22;60030;52.274;8.040;2022-11-03T06:31:09;12.10;99.90
71367;DHT22;60030;52.274;8.040;2022-11-03T06:33:41;12.10;99.90
71367;DHT22;60030;52.274;8.040;2022-11-03T06:36:14;12.10;99.90
71367;DHT22;60030;52.274;8.040;2022-11-03T06:38:43;12.10;99.90
71367;DHT22;60030;52.274;8.040;2022-11-03T06:41:15;12.10;99.90
71367;DHT22;60030;52.274;8.040;2022-11-03T06:43:45;12.20;99.90
71367;DHT22;60030;52.274;8.040;2022-11-03T06:46:16;12.10;99.90
71367;DHT22;60030;52.274;8.040;2022-11-03T06:48:46;12.20;99.90
71367;DHT22;60030;52.274;8.040;2022-11-03T06:51:19;12.20;99.90
71367;DHT22;60030;52.274;8.040;2022-11-03T06:53:48;12.10;99.90
71367;DHT22;60030;52.274;8.040;2022-11-03T06:56:20;12.20;99.90
71367;DHT22;60030;52.274;8.040;2022-11-03T06:58:49;12.20;99.90
71367;DHT22;60030;52.274;8.040;2022-11-03T07:01:20;12.20;99.90
71367;DHT22;60030;52.274;8.040;2022-11-03T07:03:50;12.20;99.90
71367;DHT22;60030;52.274;8.040;2022-11-03T07:06:20;12.30;99.90
71367;DHT22;60030;52.274;8.040;2022-11-03T07:08:51;12.30;99.90
71367;DHT22;60030;52.274;8.040;2022-11-03T07:11:20;12.30;99.90
71367;DHT22;60030;52.274;8.040;2022-11-03T07:13:50;12.30;99.90
71367;DHT22;60030;52.274;8.040;2022-11-03T07:16:22;12.30;99.90
71367;DHT22;60030;52.274;8.040;2022-11-03T07:18:53;12.40;99.90
71367;DHT22;60030;52.274;8.040;2022-11-03T07:21:35;12.40;99.90
71367;DHT22;60030;52.274;8.040;2022-11-03T07:24:11;12.40;99.90
71367;DHT22;60030;52.274;8.040;2022-11-03T07:26:39;12.40;99.90
71367;DHT22;60030;52.274;8.040;2022-11-03T07:29:09;12.40;99.90
71367;DHT22;60030;52.274;8.040;2022-11-03T07:31:37;12.50;99.90
71367;DHT22;60030;52.274;8.040;2022-11-03T07:34:12;12.50;99.90
71367;DHT22;60030;52.274;8.040;2022-11-03T07:36:42;12.60;99.90
71367;DHT22;60030;52.274;8.040;2022-11-03T07:39:14;12.60;99.90
71367;DHT22;60030;52.274;8.040;2022-11-03T07:41:44;12.70;99.90
71367;DHT22;60030;52.274;8.040;2022-11-03T07:44:14;12.70;99.90
71367;DHT22;60030;52.274;8.040;2022-11-03T07:46:42;12.70;99.90
71367;DHT22;60030;52.274;8.040;2022-11-03T07:49:19;12.80;99.90
71367;DHT22;60030;52.274;8.040;2022-11-03T07:51:47;12.80;99.90
71367;DHT22;60030;52.274;8.040;2022-11-03T07:54:19;12.80;99.90
71367;DHT22;60030;52.274;8.040;2022-11-03T07:56:50;12.80;99.90
71367;DHT22;60030;52.274;8.040;2022-11-03T07:59:20;12.90;99.90
71367;DHT22;60030;52.274;8.040;2022-11-03T08:01:49;13.00;99.90
71367;DHT22;60030;52.274;8.040;2022-11-03T08:04:20;12.90;99.90
71367;DHT22;60030;52.274;8.040;2022-11-03T08:06:49;12.90;99.90
71367;DHT22;60030;52.274;8.040;2022-11-03T08:09:16;13.00;99.90
71367;DHT22;60030;52.274;8.040;2022-11-03T08:11:43;13.00;99.90
71367;DHT22;60030;52.274;8.040;2022-11-03T08:14:10;13.10;99.90
71367;DHT22;60030;52.274;8.040;2022-11-03T08:16:37;13.10;99.90
71367;DHT22;60030;52.274;8.040;2022-11-03T08:19:05;13.10;99.90
71367;DHT22;60030;52.274;8.040;2022-11-03T08:21:33;13.10;99.90
71367;DHT22;60030;52.274;8.040;2022-11-03T08:24:00;13.20;99.90
71367;DHT22;60030;52.274;8.040;2022-11-03T08:26:27;13.10;99.90
71367;DHT22;60030;52.274;8.040;2022-11-03T08:28:54;13.20;99.90
71367;DHT22;60030;52.274;8.040;2022-11-03T08:31:22;13.20;99.90
71367;DHT22;60030;52.274;8.040;2022-11-03T08:33:49;13.30;99.90
71367;DHT22;60030;52.274;8.040;2022-11-03T08:36:16;13.30;99.90
71367;DHT22;60030;52.274;8.040;2022-11-03T08:38:46;13.30;99.90
71367;DHT22;60030;52.274;8.040;2022-11-03T08:41:13;13.40;99.90
71367;DHT22;60030;52.274;8.040;2022-11-03T08:43:40;13.50;99.90
71367;DHT22;60030;52.274;8.040;2022-11-03T08:46:07;13.50;99.90
71367;DHT22;60030;52.274;8.040;2022-11-03T08:48:34;13.50;99.90
71367;DHT22;60030;52.274;8.040;2022-11-03T08:51:01;13.50;99.90
71367;DHT22;60030;52.274;8.040;2022-11-03T08:53:28;13.50;99.90
71367;DHT22;60030;52.274;8.040;2022-11-03T08:55:56;13.70;99.90
71367;DHT22;60030;52.274;8.040;2022-11-03T08:58:23;13.70;99.90
71367;DHT22;60030;52.274;8.040;2022-11-03T09:00:51;13.60;99.90
71367;DHT22;60030;52.274;8.040;2022-11-03T09:03:18;13.70;99.90
71367;DHT22;60030;52.274;8.040;2022-11-03T09:05:45;13.70;99.90
71367;DHT22;60030;52.274;8.040;2022-11-03T09:08:12;13.80;99.90
71367;DHT22;60030;52.274;8.040;2022-11-03T09:10:39;13.80;99.90
71367;DHT22;60030;52.274;8.040;2022-11-03T09:13:08;13.90;99.90
71367;DHT22;60030;52.274;8.040;2022-11-03T09:15:35;13.90;99.90
71367;DHT22;60030;52.274;8.040;2022-11-03T09:18:02;13.90;99.90
71367;DHT22;60030;52.274;8.040;2022-11-03T09:20:29;13.90;99.90
71367;DHT22;60030;52.274;8.040;2022-11-03T09:22:56;13.90;99.90
71367;DHT22;60030;52.274;8.040;2022-11-03T09:25:23;14.10;99.90
71367;DHT22;60030;52.274;8.040;2022-11-03T09:27:50;14.10;99.90
71367;DHT22;60030;52.274;8.040;2022-11-03T09:30:19;14.20;99.90
71367;DHT22;60030;52.274;8.040;2022-11-03T09:32:46;14.20;99.90
71367;DHT22;60030;52.274;8.040;2022-11-03T09:35:13;14.30;99.90
71367;DHT22;60030;52.274;8.040;2022-11-03T09:37:41;14.30;99.90
71367;DHT22;60030;52.274;8.040;2022-11-03T09:40:10;14.40;99.90
71367;DHT22;60030;52.274;8.040;2022-11-03T09:42:39;14.40;99.90
71367;DHT22;60030;52.274;8.040;2022-11-03T09:45:08;14.50;99.90
71367;DHT22;60030;52.274;8.040;2022-11-03T09:47:39;14.50;99.90
71367;DHT22;60030;52.274;8.040;2022-11-03T09:50:11;14.60;99.90
71367;DHT22;60030;52.274;8.040;2022-11-03T09:52:39;14.50;99.90
71367;DHT22;60030;52.274;8.040;2022-11-03T09:55:12;14.50;99.90
71367;DHT22;60030;52.274;8.040;2022-11-03T09:57:40;14.60;99.90
71367;DHT22;60030;52.274;8.040;2022-11-03T10:00:15;14.60;99.90
71367;DHT22;60030;52.274;8.040;2022-11-03T10:02:46;14.70;99.90
71367;DHT22;60030;52.274;8.040;2022-11-03T10:05:15;14.70;99.90
71367;DHT22;60030;52.274;8.040;2022-11-03T10:07:44;14.70;99.90
71367;DHT22;60030;52.274;8.040;2022-11-03T10:10:17;14.70;99.90
71367;DHT22;60030;52.274;8.040;2022-11-03T10:12:46;14.70;99.90
71367;DHT22;60030;52.274;8.040;2022-11-03T10:15:15;14.70;99.90
71367;DHT22;60030;52.274;8.040;2022-11-03T10:17:43;14.80;99.90
71367;DHT22;60030;52.274;8.040;2022-11-03T10:20:14;14.80;99.90
71367;DHT22;60030;52.274;8.040;2022-11-03T10:22:42;14.80;99.90
71367;DHT22;60030;52.274;8.040;2022-11-03T10:25:33;14.90;99.90
71367;DHT22;60030;52.274;8.040;2022-11-03T10:28:13;14.90;99.90
71367;DHT22;60030;52.274;8.040;2022-11-03T10:30:50;14.80;99.90
71367;DHT22;60030;52.274;8.040;2022-11-03T10:33:36;14.90;99.90
71367;DHT22;60030;52.274;8.040;2022-11-03T10:36:23;15.00;99.90
71367;DHT22;60030;52.274;8.040;2022-11-03T10:38:51;15.00;99.90
71367;DHT22;60030;52.274;8.040;2022-11-03T10:41:19;15.00;99.90
71367;DHT22;60030;52.274;8.040;2022-11-03T10:43:59;15.00;99.90
71367;DHT22;60030;52.274;8.040;2022-11-03T10:46:27;15.10;99.90
71367;DHT22;60030;52.274;8.040;2022-11-03T10:49:02;15.20;99.90
71367;DHT22;60030;52.274;8.040;2022-11-03T10:51:33;15.20;99.90
71367;DHT22;60030;52.274;8.040;2022-11-03T10:54:00;15.30;99.90
71367;DHT22;60030;52.274;8.040;2022-11-03T10:56:28;15.40;99.90
71367;DHT22;60030;52.274;8.040;2022-11-03T10:58:56;15.40;99.90
71367;DHT22;60030;52.274;8.040;2022-11-03T11:01:23;15.50;99.90
71367;DHT22;60030;52.274;8.040;2022-11-03T11:03:51;15.50;99.90
71367;DHT22;60030;52.274;8.040;2022-11-03T11:06:20;15.40;99.90
71367;DHT22;60030;52.274;8.040;2022-11-03T11:08:51;15.50;99.90
71367;DHT22;60030;52.274;8.040;2022-11-03T11:11:22;15.60;99.90
71367;DHT22;60030;52.274;8.040;2022-11-03T11:14:21;15.70;99.90
71367;DHT22;60030;52.274;8.040;2022-11-03T11:16:51;15.70;99.90
71367;DHT22;60030;52.274;8.040;2022-11-03T11:19:18;15.80;99.90
71367;DHT22;60030;52.274;8.040;2022-11-03T11:21:59;15.90;99.90
71367;DHT22;60030;52.274;8.040;2022-11-03T11:25:02;15.80;99.90
71367;DHT22;60030;52.274;8.040;2022-11-03T11:27:54;15.70;99.90
71367;DHT22;60030;52.274;8.040;2022-11-03T11:33:31;15.70;99.90
71367;DHT22;60030;52.274;8.040;2022-11-03T11:36:05;15.70;99.90
71367;DHT22;60030;52.274;8.040;2022-11-03T11:39:09;15.70;99.90
71367;DHT22;60030;52.274;8.040;2022-11-03T11:42:10;15.60;99.90
71367;DHT22;60030;52.274;8.040;2022-11-03T11:44:57;15.60;99.90
71367;DHT22;60030;52.274;8.040;2022-11-03T11:47:42;15.70;99.90
71367;DHT22;60030;52.274;8.040;2022-11-03T11:50:26;15.70;99.90
71367;DHT22;60030;52.274;8.040;2022-11-03T11:53:19;15.60;99.90
71367;DHT22;60030;52.274;8.040;2022-11-03T11:55:50;15.60;99.90
71367;DHT22;60030;52.274;8.040;2022-11-03T11:58:27;15.50;99.90
71367;DHT22;60030;52.274;8.040;2022-11-03T12:00:59;15.40;99.90
71367;DHT22;60030;52.274;8.040;2022-11-03T12:03:34;15.40;99.90
71367;DHT22;60030;52.274;8.040;2022-11-03T12:06:02;15.40;99.90
71367;DHT22;60030;52.274;8.040;2022-11-03T12:08:30;15.40;99.90
71367;DHT22;60030;52.274;8.040;2022-11-03T12:10:59;15.30;99.90
71367;DHT22;60030;52.274;8.040;2022-11-03T12:13:40;15.40;99.90
71367;DHT22;60030;52.274;8.040;2022-11-03T12:16:08;15.40;99.90
71367;DHT22;60030;52.274;8.040;2022-11-03T12:18:36;15.40;99.90
71367;DHT22;60030;52.274;8.040;2022-11-03T12:21:05;15.50;99.90
71367;DHT22;60030;52.274;8.040;2022-11-03T12:23:37;15.50;99.90
71367;DHT22;60030;52.274;8.040;2022-11-03T12:26:13;15.50;99.90
71367;DHT22;60030;52.274;8.040;2022-11-03T12:28:42;15.50;99.90
71367;DHT22;60030;52.274;8.040;2022-11-03T12:31:10;15.40;99.90
71367;DHT22;60030;52.274;8.040;2022-11-03T12:33:37;15.40;99.90
71367;DHT22;60030;52.274;8.040;2022-11-03T12:36:05;15.50;99.90
71367;DHT22;60030;52.274;8.040;2022-11-03T12:38:32;15.50;99.90
71367;DHT22;60030;52.274;8.040;2022-11-03T12:40:59;15.40;99.90
71367;DHT22;60030;52.274;8.040;2022-11-03T12:43:48;15.40;99.90
71367;DHT22;60030;52.274;8.040;2022-11-03T12:46:15;15.30;99.90
71367;DHT22;60030;52.274;8.040;2022-11-03T12:48:43;15.20;99.90
71367;DHT22;60030;52.274;8.040;2022-11-03T12:51:11;15.20;99.90
71367;DHT22;60030;52.274;8.040;2022-11-03T12:53:39;15.10;99.90
71367;DHT22;60030;52.274;8.040;2022-11-03T12:56:07;15.20;99.90
71367;DHT22;60030;52.274;8.040;2022-11-03T12:58:35;15.20;99.90
71367;DHT22;60030;52.274;8.040;2022-11-03T13:01:04;15.40;99.90
71367;DHT22;60030;52.274;8.040;2022-11-03T13:03:32;15.80;99.90
71367;DHT22;60030;52.274;8.040;2022-11-03T13:06:00;16.20;99.90
71367;DHT22;60030;52.274;8.040;2022-11-03T13:08:29;16.40;99.90
71367;DHT22;60030;52.274;8.040;2022-11-03T13:10:57;16.60;99.90
71367;DHT22;60030;52.274;8.040;2022-11-03T13:13:24;16.80;99.90
71367;DHT22;60030;52.274;8.040;2022-11-03T13:15:51;16.60;99.90
71367;DHT22;60030;52.274;8.040;2022-11-03T13:18:20;16.50;99.90
71367;DHT22;60030;52.274;8.040;2022-11-03T13:20:48;16.40;99.90
71367;DHT22;60030;52.274;8.040;2022-11-03T13:23:16;16.20;99.90
71367;DHT22;60030;52.274;8.040;2022-11-03T13:25:43;16.20;99.90
71367;DHT22;60030;52.274;8.040;2022-11-03T13:28:11;16.10;99.90
71367;DHT22;60030;52.274;8.040;2022-11-03T13:30:38;15.90;99.90
71367;DHT22;60030;52.274;8.040;2022-11-03T13:33:06;15.90;99.90
71367;DHT22;60030;52.274;8.040;2022-11-03T13:35:34;15.80;99.90
71367;DHT22;60030;52.274;8.040;2022-11-03T13:38:02;15.80;99.90
71367;DHT22;60030;52.274;8.040;2022-11-03T13:40:29;15.80;99.90
71367;DHT22;60030;52.274;8.040;2022-11-03T13:42:56;15.70;99.90
71367;DHT22;60030;52.274;8.040;2022-11-03T13:45:23;15.80;99.90
71367;DHT22;60030;52.274;8.040;2022-11-03T13:47:50;15.70;99.90
71367;DHT22;60030;52.274;8.040;2022-11-03T13:50:18;15.50;99.90
71367;DHT22;60030;52.274;8.040;2022-11-03T13:52:46;15.40;99.90
71367;DHT22;60030;52.274;8.040;2022-11-03T13:55:14;15.40;99.90
71367;DHT22;60030;52.274;8.040;2022-11-03T13:57:41;15.40;99.90
71367;DHT22;60030;52.274;8.040;2022-11-03T14:00:10;15.50;99.90
71367;DHT22;60030;52.274;8.040;2022-11-03T14:02:38;15.40;99.90
71367;DHT22;60030;52.274;8.040;2022-11-03T14:05:06;15.40;99.90
71367;DHT22;60030;52.274;8.040;2022-11-03T14:07:34;15.40;99.90
71367;DHT22;60030;52.274;8.040;2022-11-03T14:10:03;15.40;99.90
71367;DHT22;60030;52.274;8.040;2022-11-03T14:12:30;15.40;99.90
71367;DHT22;60030;52.274;8.040;2022-11-03T14:14:56;15.40;99.90
71367;DHT22;60030;52.274;8.040;2022-11-03T14:17:24;15.30;99.90
71367;DHT22;60030;52.274;8.040;2022-11-03T14:19:51;15.30;99.90
71367;DHT22;60030;52.274;8.040;2022-11-03T14:22:18;15.20;99.90
71367;DHT22;60030;52.274;8.040;2022-11-03T14:24:45;15.20;99.90
71367;DHT22;60030;52.274;8.040;2022-11-03T14:27:14;15.20;99.90
71367;DHT22;60030;52.274;8.040;2022-11-03T14:29:42;15.20;99.90
71367;DHT22;60030;52.274;8.040;2022-11-03T14:32:09;15.20;99.90
71367;DHT22;60030;52.274;8.040;2022-11-03T14:34:36;15.20;99.90
71367;DHT22;60030;52.274;8.040;2022-11-03T14:37:04;15.20;99.90
71367;DHT22;60030;52.274;8.040;2022-11-03T14:39:33;15.10;99.90
71367;DHT22;60030;52.274;8.040;2022-11-03T14:42:01;15.10;99.90
71367;DHT22;60030;52.274;8.040;2022-11-03T14:44:32;15.10;99.90
71367;DHT22;60030;52.274;8.040;2022-11-03T14:47:00;15.20;99.90
71367;DHT22;60030;52.274;8.040;2022-11-03T14:49:27;15.20;99.90
71367;DHT22;60030;52.274;8.040;2022-11-03T14:51:55;15.20;99.90
71367;DHT22;60030;52.274;8.040;2022-11-03T14:54:22;15.10;99.90
71367;DHT22;60030;52.274;8.040;2022-11-03T14:56:50;15.10;99.90
71367;DHT22;60030;52.274;8.040;2022-11-03T14:59:17;15.00;99.90
71367;DHT22;60030;52.274;8.040;2022-11-03T15:01:46;15.10;99.90
71367;DHT22;60030;52.274;8.040;2022-11-03T15:04:13;15.00;99.90
71367;DHT22;60030;52.274;8.040;2022-11-03T15:06:41;14.90;99.90
71367;DHT22;60030;52.274;8.040;2022-11-03T15:09:08;14.90;99.90
71367;DHT22;60030;52.274;8.040;2022-11-03T15:11:35;15.00;99.90
71367;DHT22;60030;52.274;8.040;2022-11-03T15:14:03;14.90;99.90
71367;DHT22;60030;52.274;8.040;2022-11-03T15:16:30;14.90;99.90
71367;DHT22;60030;52.274;8.040;2022-11-03T15:19:00;14.80;99.90
71367;DHT22;60030;52.274;8.040;2022-11-03T15:21:28;14.80;99.90
71367;DHT22;60030;52.274;8.040;2022-11-03T15:23:56;14.70;99.90
71367;DHT22;60030;52.274;8.040;2022-11-03T15:26:23;14.70;99.90
71367;DHT22;60030;52.274;8.040;2022-11-03T15:28:50;14.60;99.90
71367;DHT22;60030;52.274;8.040;2022-11-03T15:31:17;14.60;99.90
71367;DHT22;60030;52.274;8.040;2022-11-03T15:33:44;14.50;99.90
71367;DHT22;60030;52.274;8.040;2022-11-03T15:36:12;14.50;99.90
71367;DHT22;60030;52.274;8.040;2022-11-03T15:38:39;14.40;99.90
71367;DHT22;60030;52.274;8.040;2022-11-03T15:41:06;14.40;99.90
71367;DHT22;60030;52.274;8.040;2022-11-03T15:43:44;14.50;99.90
71367;DHT22;60030;52.274;8.040;2022-11-03T15:46:12;14.50;99.90
71367;DHT22;60030;52.274;8.040;2022-11-03T15:48:40;14.40;99.90
71367;DHT22;60030;52.274;8.040;2022-11-03T15:51:07;14.40;99.90
71367;DHT22;60030;52.274;8.040;2022-11-03T15:53:35;14.40;99.90